Time;durP1;ratioP1;P1;durP2;ratioP2;P2;SDS_P1;SDS_P2;PMS_P1;PMS_P2;Temp;Humidity;BMP_temperature;BMP_pressure;BME280_temperature;BME280_humidity;BME280_pressure;Samples;Min_cycle;Max_cycle;Signal;HPM_P1;HPM_P2
2023/03/15 00:01:46;;;;;;;2.78;1.00;;;2.00;99.90;;;;;;5055525;28;20102;-79
2023/03/15 00:04:13;;;;;;;8.07;1.40;;;2.40;99.90;;;;;;5055640;28;20041;-79
2023/03/15 00:06:40;;;;;;;4.53;1.05;;;2.10;99.90;;;;;;5055361;28;20045;-79
2023/03/15 00:09:07;;;;;;;4.55;1.00;;;2.20;99.90;;;;;;5055162;28;20053;-79
2023/03/15 00:11:33;;;;;;;6.15;1.08;;;2.00;99.90;;;;;;5087915;28;20445;-79
2023/03/15 00:14:01;;;;;;;3.55;1.02;;;2.10;99.90;;;;;;5122105;28;20490;-79
2023/03/15 00:16:28;;;;;;;5.63;1.35;;;2.10;99.90;;;;;;5087793;28;20045;-79
2023/03/15 00:18:55;;;;;;;5.50;1.33;;;2.20;99.90;;;;;;5071547;28;20400;-79
2023/03/15 00:21:22;;;;;;;10.50;1.52;;;2.20;99.90;;;;;;5104127;28;20041;-79
2023/03/15 00:23:49;;;;;;;4.68;1.10;;;2.60;99.90;;;;;;5088334;28;20040;-79
2023/03/15 00:26:16;;;;;;;4.65;1.10;;;2.60;99.90;;;;;;5088341;28;20049;-79
2023/03/15 00:28:43;;;;;;;5.93;1.08;;;2.00;99.90;;;;;;5071024;28;20045;-79
2023/03/15 00:31:22;;;;;;;4.38;1.25;;;2.70;99.90;;;;;;5087751;28;20044;-79
2023/03/15 00:33:52;;;;;;;3.88;1.02;;;2.10;99.90;;;;;;5071353;28;20036;-79
2023/03/15 00:36:23;;;;;;;8.45;1.17;;;2.00;99.90;;;;;;5121581;28;20036;-79
2023/03/15 00:38:52;;;;;;;7.63;1.33;;;2.00;99.90;;;;;;5087550;28;20106;-79
2023/03/15 00:41:20;;;;;;;11.60;1.50;;;1.90;99.90;;;;;;5071614;28;20049;-79
2023/03/15 00:43:47;;;;;;;6.88;1.10;;;2.00;99.90;;;;;;5087572;28;20055;-79
2023/03/15 00:46:16;;;;;;;9.38;1.20;;;1.90;99.90;;;;;;5087577;28;20049;-79
2023/03/15 00:48:43;;;;;;;6.97;1.15;;;1.90;99.90;;;;;;5087156;28;20048;-79
2023/03/15 00:51:12;;;;;;;7.82;1.30;;;2.10;99.90;;;;;;5087971;28;20029;-79
2023/03/15 00:53:42;;;;;;;6.65;1.40;;;1.90;99.90;;;;;;5070763;28;20505;-79
2023/03/15 00:56:16;;;;;;;8.07;1.08;;;2.50;99.90;;;;;;5070446;28;20519;-79
2023/03/15 00:58:43;;;;;;;6.65;1.23;;;2.10;99.90;;;;;;5087481;28;20049;-79
2023/03/15 01:01:17;;;;;;;4.82;1.02;;;1.80;99.90;;;;;;5071377;28;20049;-79
2023/03/15 01:03:45;;;;;;;6.95;1.17;;;2.10;99.90;;;;;;5070096;28;20417;-79
2023/03/15 01:06:18;;;;;;;7.65;1.40;;;1.70;99.90;;;;;;5087151;28;20095;-79
2023/03/15 01:08:45;;;;;;;5.50;1.35;;;2.00;99.90;;;;;;5103582;28;20156;-79
2023/03/15 01:11:15;;;;;;;6.53;1.10;;;1.70;99.90;;;;;;5070592;28;20458;-79
2023/03/15 01:13:42;;;;;;;6.30;1.42;;;1.90;99.90;;;;;;5069910;28;20052;-79
2023/03/15 01:16:12;;;;;;;5.03;1.10;;;1.60;99.90;;;;;;5086759;28;20402;-79
2023/03/15 01:18:41;;;;;;;6.00;1.20;;;1.60;99.90;;;;;;5103481;28;20107;-79
2023/03/15 01:21:10;;;;;;;6.35;1.30;;;1.60;99.90;;;;;;5121193;28;20043;-79
2023/03/15 01:23:37;;;;;;;5.45;1.00;;;2.00;99.90;;;;;;5086576;28;20771;-79
2023/03/15 01:26:06;;;;;;;6.38;1.92;;;2.50;99.90;;;;;;5086914;28;20463;-79
2023/03/15 01:28:33;;;;;;;9.15;1.60;;;1.60;99.90;;;;;;5086319;28;20543;-79
2023/03/15 01:31:00;;;;;;;5.78;1.27;;;2.10;99.90;;;;;;5086692;28;20039;-79
2023/03/15 01:33:27;;;;;;;6.15;1.60;;;1.60;99.90;;;;;;5086387;28;20483;-79
2023/03/15 01:36:05;;;;;;;4.68;1.20;;;1.60;99.90;;;;;;5066344;28;20041;-79
2023/03/15 01:38:32;;;;;;;10.57;1.60;;;1.60;99.90;;;;;;5066215;28;20410;-79
2023/03/15 01:40:59;;;;;;;8.07;1.00;;;1.80;99.90;;;;;;5084488;28;20045;-79
2023/03/15 01:43:28;;;;;;;8.18;1.00;;;1.60;99.90;;;;;;5069779;28;20052;-79
2023/03/15 01:46:03;;;;;;;8.57;1.30;;;1.60;99.90;;;;;;5069548;28;20044;-79
2023/03/15 01:48:37;;;;;;;6.57;0.93;;;1.60;99.90;;;;;;5069855;28;20040;-79
2023/03/15 01:51:10;;;;;;;7.55;1.00;;;1.60;99.90;;;;;;5069984;28;20287;-79
2023/03/15 01:53:39;;;;;;;6.35;1.15;;;2.00;99.90;;;;;;5069679;28;20048;-79
2023/03/15 01:56:07;;;;;;;3.22;0.68;;;2.20;99.90;;;;;;5069946;28;20049;-79
2023/03/15 01:58:35;;;;;;;1.55;0.70;;;1.70;99.90;;;;;;5070266;28;20045;-79
2023/03/15 02:01:02;;;;;;;10.65;1.00;;;2.30;99.90;;;;;;5069980;28;20556;-79
2023/03/15 02:03:34;;;;;;;4.53;0.82;;;1.70;99.90;;;;;;5086410;28;20044;-79
2023/03/15 02:06:05;;;;;;;7.90;1.15;;;1.70;99.90;;;;;;5070254;28;20048;-79
2023/03/15 02:08:36;;;;;;;4.65;1.10;;;1.70;99.90;;;;;;5069700;28;20052;-79
2023/03/15 02:11:04;;;;;;;5.55;1.15;;;2.30;99.90;;;;;;5102961;28;20041;-79
2023/03/15 02:13:33;;;;;;;6.60;1.20;;;1.90;99.90;;;;;;5102901;28;20037;-79
2023/03/15 02:16:00;;;;;;;4.13;0.93;;;1.60;99.90;;;;;;5118545;28;20099;-79
2023/03/15 02:18:27;;;;;;;7.57;0.85;;;1.60;99.90;;;;;;5069503;28;20934;-79
2023/03/15 02:21:24;;;;;;;16.13;1.20;;;2.00;99.90;;;;;;5119182;28;20139;-79
2023/03/15 02:24:16;;;;;;;13.77;1.38;;;1.60;99.90;;;;;;5085709;28;20048;-79
2023/03/15 02:26:47;;;;;;;10.43;0.93;;;1.60;99.90;;;;;;5065859;28;20049;-79
2023/03/15 02:29:14;;;;;;;7.32;1.35;;;1.60;99.90;;;;;;5049238;28;20056;-79
2023/03/15 02:31:41;;;;;;;4.35;0.80;;;1.80;99.90;;;;;;5065378;28;20041;-79
2023/03/15 02:34:08;;;;;;;5.28;1.10;;;1.60;99.90;;;;;;5049368;28;20037;-79
2023/03/15 02:36:35;;;;;;;5.78;0.88;;;1.70;99.90;;;;;;5065800;28;20037;-79
2023/03/15 02:39:14;;;;;;;4.35;0.85;;;2.30;99.90;;;;;;5082095;28;20182;-79
2023/03/15 02:41:45;;;;;;;4.72;0.95;;;1.80;99.90;;;;;;5082160;28;20053;-80
2023/03/15 02:44:17;;;;;;;7.25;1.25;;;1.80;99.90;;;;;;5078954;28;20037;-79
2023/03/15 02:46:48;;;;;;;9.95;1.00;;;1.80;99.90;;;;;;5068668;28;20544;-79
2023/03/15 02:49:16;;;;;;;7.60;0.98;;;1.80;99.90;;;;;;5068593;28;20064;-79
2023/03/15 02:51:43;;;;;;;8.38;1.17;;;1.80;99.90;;;;;;5085099;28;20032;-79
2023/03/15 02:54:09;;;;;;;4.82;0.80;;;1.90;99.90;;;;;;5068853;28;20057;-79
2023/03/15 02:56:36;;;;;;;5.20;0.95;;;1.80;99.90;;;;;;5085191;28;20060;-79
2023/03/15 02:59:03;;;;;;;4.03;1.10;;;1.80;99.90;;;;;;5101960;28;20050;-79
2023/03/15 03:01:30;;;;;;;6.88;1.00;;;1.80;99.90;;;;;;5085462;28;20041;-79
2023/03/15 03:03:57;;;;;;;4.72;1.60;;;1.80;99.90;;;;;;5067905;28;20037;-79
2023/03/15 03:06:23;;;;;;;3.15;1.20;;;1.70;99.90;;;;;;5068721;28;20525;-79
2023/03/15 03:08:50;;;;;;;6.57;1.33;;;2.50;99.90;;;;;;5084944;28;20048;-79
2023/03/15 03:11:17;;;;;;;5.75;0.90;;;1.60;99.90;;;;;;5085152;28;20692;-79
2023/03/15 03:13:44;;;;;;;4.97;1.42;;;1.60;99.90;;;;;;5085326;28;20047;-79
2023/03/15 03:16:11;;;;;;;8.32;1.58;;;2.40;99.90;;;;;;5085135;28;20100;-79
2023/03/15 03:18:38;;;;;;;10.90;1.02;;;1.60;99.90;;;;;;5085518;28;20520;-79
2023/03/15 03:21:06;;;;;;;9.27;1.08;;;1.60;99.90;;;;;;5084951;28;20055;-79
2023/03/15 03:23:35;;;;;;;10.38;0.90;;;2.20;99.90;;;;;;5085377;28;20044;-79
2023/03/15 03:26:02;;;;;;;3.47;0.73;;;1.50;99.90;;;;;;5101156;28;20519;-79
2023/03/15 03:28:31;;;;;;;6.50;0.90;;;1.50;99.90;;;;;;5088563;28;20080;-79
2023/03/15 03:30:58;;;;;;;7.30;1.25;;;2.30;99.90;;;;;;5072106;28;20486;-79
2023/03/15 03:33:24;;;;;;;5.32;1.33;;;1.40;99.90;;;;;;5122666;28;20094;-79
2023/03/15 03:35:52;;;;;;;2.08;0.85;;;2.30;99.90;;;;;;5071988;28;20069;-79
2023/03/15 03:38:19;;;;;;;11.95;1.23;;;1.70;99.90;;;;;;5088975;28;20041;-79
2023/03/15 03:40:46;;;;;;;10.18;1.35;;;1.30;99.90;;;;;;5088865;28;20408;-79
2023/03/15 03:43:13;;;;;;;12.15;1.02;;;1.30;99.90;;;;;;5105034;28;20041;-79
2023/03/15 03:45:39;;;;;;;6.80;1.20;;;1.30;99.90;;;;;;5072212;28;20041;-79
2023/03/15 03:48:06;;;;;;;5.47;1.10;;;1.30;99.90;;;;;;5088172;28;20045;-79
2023/03/15 03:50:33;;;;;;;8.30;1.45;;;1.90;99.90;;;;;;5088622;28;20383;-79
2023/03/15 03:53:00;;;;;;;10.20;1.73;;;1.20;99.90;;;;;;5104901;28;20040;-79
2023/03/15 03:55:27;;;;;;;5.88;1.00;;;1.80;99.90;;;;;;5088116;28;20104;-79
2023/03/15 03:57:53;;;;;;;7.40;1.25;;;2.20;99.90;;;;;;5088148;28;20052;-80
2023/03/15 04:00:20;;;;;;;6.75;1.45;;;2.30;99.90;;;;;;5088296;28;20036;-79
2023/03/15 04:02:47;;;;;;;9.73;1.30;;;1.20;99.90;;;;;;5088730;28;20041;-79
2023/03/15 04:05:17;;;;;;;5.60;1.00;;;1.20;99.90;;;;;;5071566;28;20053;-79
2023/03/15 04:07:43;;;;;;;5.63;0.88;;;1.20;99.90;;;;;;5071380;28;20048;-79
2023/03/15 04:10:14;;;;;;;8.35;1.15;;;2.20;99.90;;;;;;5087769;28;20041;-79
2023/03/15 04:12:42;;;;;;;9.57;1.30;;;1.20;99.90;;;;;;5104723;28;20037;-79
2023/03/15 04:15:10;;;;;;;7.68;1.15;;;1.20;99.90;;;;;;5104684;28;20044;-79
2023/03/15 04:17:38;;;;;;;4.60;0.80;;;1.20;99.90;;;;;;5071369;28;20044;-79
2023/03/15 04:20:07;;;;;;;6.45;1.90;;;1.90;99.90;;;;;;5071088;28;20052;-79
2023/03/15 04:22:34;;;;;;;6.53;1.23;;;1.40;99.90;;;;;;5088112;28;20047;-79
2023/03/15 04:25:01;;;;;;;4.78;1.33;;;1.40;99.90;;;;;;5104683;28;20036;-79
2023/03/15 04:27:28;;;;;;;7.35;0.90;;;2.10;99.90;;;;;;5071154;28;20041;-79
2023/03/15 04:29:55;;;;;;;11.88;1.48;;;1.40;99.90;;;;;;5087999;28;20033;-79
2023/03/15 04:32:22;;;;;;;9.93;1.27;;;2.20;99.90;;;;;;5087995;28;20080;-79
2023/03/15 04:34:50;;;;;;;8.80;1.20;;;1.50;99.90;;;;;;5087995;28;20075;-79
2023/03/15 04:37:18;;;;;;;5.65;1.05;;;1.50;99.90;;;;;;5071070;28;20072;-79
2023/03/15 04:39:44;;;;;;;4.57;0.98;;;1.90;99.90;;;;;;5103756;28;20049;-79
2023/03/15 04:42:11;;;;;;;7.10;0.98;;;2.50;99.90;;;;;;5104332;28;20047;-79
2023/03/15 04:44:38;;;;;;;6.70;1.08;;;1.40;99.90;;;;;;5087419;28;20041;-79
2023/03/15 04:47:05;;;;;;;6.38;1.08;;;1.40;99.90;;;;;;5070824;28;20056;-79
2023/03/15 04:49:31;;;;;;;5.07;0.80;;;1.40;99.90;;;;;;5087415;28;20040;-79
2023/03/15 04:51:58;;;;;;;9.35;0.90;;;1.90;99.90;;;;;;5087791;28;20029;-79
2023/03/15 04:54:25;;;;;;;5.65;1.80;;;2.00;99.90;;;;;;5103869;28;20062;-79
2023/03/15 04:56:51;;;;;;;7.57;1.10;;;1.80;99.90;;;;;;5070513;28;20182;-79
2023/03/15 04:59:18;;;;;;;11.57;1.00;;;1.30;99.90;;;;;;5087011;28;20044;-79
2023/03/15 05:01:45;;;;;;;15.82;2.08;;;1.30;99.90;;;;;;5103582;28;20044;-79
2023/03/15 05:04:12;;;;;;;6.30;1.13;;;1.20;99.90;;;;;;5070426;28;20037;-79
2023/03/15 05:06:39;;;;;;;7.25;1.30;;;2.00;99.90;;;;;;5087456;28;20041;-79
2023/03/15 05:09:06;;;;;;;9.32;1.73;;;1.10;99.90;;;;;;5103249;28;20044;-79
2023/03/15 05:11:33;;;;;;;4.47;1.08;;;1.10;99.90;;;;;;5087418;28;20041;-79
2023/03/15 05:13:59;;;;;;;4.93;0.90;;;1.50;99.90;;;;;;5070754;28;20123;-78
2023/03/15 05:16:26;;;;;;;5.22;1.05;;;1.40;99.90;;;;;;5087118;28;20044;-79
2023/03/15 05:18:53;;;;;;;3.85;1.20;;;0.90;99.90;;;;;;5103781;28;20051;-79
2023/03/15 05:21:19;;;;;;;3.50;0.50;;;0.90;99.90;;;;;;5053866;28;20488;-78
2023/03/15 05:23:46;;;;;;;5.35;1.05;;;1.60;99.90;;;;;;5054141;28;20048;-78
2023/03/15 05:26:13;;;;;;;8.45;1.50;;;0.70;99.90;;;;;;5053427;28;20084;-79
2023/03/15 05:28:40;;;;;;;4.03;0.63;;;0.20;99.90;;;;;;5070061;28;20037;-79
2023/03/15 05:31:06;;;;;;;2.58;0.80;;;0.60;99.90;;;;;;5069074;28;20037;-79
2023/03/15 05:33:33;;;;;;;3.10;1.10;;;1.40;99.90;;;;;;5052994;28;20037;-79
2023/03/15 05:36:00;;;;;;;7.55;0.82;;;0.50;99.90;;;;;;5069156;28;20040;-79
2023/03/15 05:38:26;;;;;;;6.47;1.00;;;0.70;99.90;;;;;;5068554;28;20158;-79
2023/03/15 05:40:53;;;;;;;2.45;0.77;;;1.20;99.90;;;;;;5102418;28;20044;-79
2023/03/15 05:43:20;;;;;;;4.85;1.00;;;1.00;99.90;;;;;;5052664;28;20043;-79
2023/03/15 05:45:47;;;;;;;3.80;1.08;;;0.90;99.90;;;;;;5086096;28;20448;-79
2023/03/15 05:48:15;;;;;;;6.88;1.23;;;0.20;99.90;;;;;;5085937;28;20098;-79
2023/03/15 05:50:42;;;;;;;7.60;1.10;;;0.20;99.90;;;;;;5101498;28;20041;-79
2023/03/15 05:53:09;;;;;;;5.07;0.80;;;0.20;99.90;;;;;;5086333;28;20040;-80
2023/03/15 05:55:36;;;;;;;1.77;0.68;;;0.10;99.90;;;;;;5086589;28;20534;-79
2023/03/15 05:58:03;;;;;;;1.60;0.70;;;0.10;99.90;;;;;;5070264;28;20076;-79
2023/03/15 06:00:30;;;;;;;1.35;0.65;;;0.70;99.90;;;;;;5069876;28;20060;-78
2023/03/15 06:02:57;;;;;;;2.22;0.98;;;0.40;99.90;;;;;;5086614;28;20402;-78
2023/03/15 06:05:23;;;;;;;3.80;0.65;;;0.40;99.90;;;;;;5086230;28;20059;-78
2023/03/15 06:07:50;;;;;;;2.88;0.50;;;0.10;99.90;;;;;;5102982;28;20041;-78
2023/03/15 06:10:18;;;;;;;7.15;0.88;;;0.10;99.90;;;;;;5102695;28;20043;-78
2023/03/15 06:12:45;;;;;;;3.35;0.73;;;0.70;99.90;;;;;;5103055;28;20049;-79
2023/03/15 06:15:11;;;;;;;2.92;0.93;;;0.90;99.90;;;;;;5069715;28;20120;-78
2023/03/15 06:17:38;;;;;;;6.43;0.80;;;0.50;99.90;;;;;;5085799;28;20049;-79
2023/03/15 06:20:05;;;;;;;0.95;0.85;;;0.20;99.90;;;;;;5102901;28;20415;-78
2023/03/15 06:22:32;;;;;;;0.75;0.55;;;0.20;99.90;;;;;;5068904;28;20033;-79
2023/03/15 06:24:59;;;;;;;2.30;0.70;;;0.20;99.90;;;;;;5085808;28;20083;-78
2023/03/15 06:27:25;;;;;;;5.60;1.17;;;0.30;99.90;;;;;;5102248;28;20124;-79
2023/03/15 06:29:52;;;;;;;3.08;0.57;;;0.30;99.90;;;;;;5085681;28;20045;-79
2023/03/15 06:32:19;;;;;;;0.50;0.50;;;0.40;99.90;;;;;;5102324;28;20037;-79
2023/03/15 06:34:46;;;;;;;1.48;0.47;;;0.40;99.90;;;;;;5068959;28;20124;-79
2023/03/15 06:37:14;;;;;;;3.28;0.80;;;0.40;99.90;;;;;;5085561;28;20033;-79
2023/03/15 06:39:41;;;;;;;2.38;0.68;;;0.50;99.90;;;;;;5119169;28;20045;-80
2023/03/15 06:42:08;;;;;;;7.43;1.38;;;1.10;99.90;;;;;;5069111;28;20051;-79
2023/03/15 06:44:35;;;;;;;2.92;0.70;;;0.70;99.90;;;;;;5085001;28;20048;-79
2023/03/15 06:47:01;;;;;;;1.65;0.77;;;1.10;99.90;;;;;;5085793;28;20048;-79
2023/03/15 06:49:29;;;;;;;1.58;0.45;;;0.80;99.90;;;;;;5068373;28;20040;-79
2023/03/15 06:51:56;;;;;;;1.08;0.60;;;0.80;99.90;;;;;;5085436;28;20037;-79
2023/03/15 06:54:23;;;;;;;1.85;0.63;;;0.80;99.90;;;;;;5101747;28;20516;-79
2023/03/15 06:56:50;;;;;;;3.20;0.65;;;0.80;99.90;;;;;;5085606;28;20057;-79
2023/03/15 06:59:17;;;;;;;1.13;0.70;;;0.80;99.90;;;;;;5085254;28;20049;-79
2023/03/15 07:01:43;;;;;;;2.35;0.40;;;0.90;99.90;;;;;;5068140;28;20037;-79
2023/03/15 07:04:10;;;;;;;1.02;0.52;;;1.50;99.90;;;;;;5084812;28;20076;-78
2023/03/15 07:06:37;;;;;;;0.45;0.43;;;0.90;99.90;;;;;;5068450;28;20041;-79
2023/03/15 07:09:04;;;;;;;4.10;0.85;;;0.90;99.90;;;;;;5068412;28;20041;-79
2023/03/15 07:11:31;;;;;;;3.00;1.10;;;1.60;99.90;;;;;;5068524;28;20040;-79
2023/03/15 07:13:58;;;;;;;2.30;0.90;;;1.30;99.90;;;;;;5068729;28;20128;-78
2023/03/15 07:16:25;;;;;;;1.65;0.95;;;1.80;99.90;;;;;;5068156;28;20124;-78
2023/03/15 07:18:54;;;;;;;6.22;0.73;;;1.20;99.90;;;;;;5084842;28;20593;-77
2023/03/15 07:21:21;;;;;;;1.58;0.70;;;2.00;99.90;;;;;;5068876;28;20072;-78
2023/03/15 07:23:48;;;;;;;6.18;1.58;;;1.30;99.90;;;;;;5084970;28;20087;-78
2023/03/15 07:26:14;;;;;;;0.82;0.60;;;1.30;99.90;;;;;;5085561;28;20520;-79
2023/03/15 07:28:44;;;;;;;5.47;1.10;;;1.50;99.90;;;;;;5084906;28;20072;-79
2023/03/15 07:31:11;;;;;;;1.67;0.80;;;1.40;99.90;;;;;;5084719;28;20044;-79
2023/03/15 07:33:38;;;;;;;2.00;0.70;;;1.50;99.90;;;;;;5085245;28;20033;-79
2023/03/15 07:36:06;;;;;;;2.03;0.85;;;1.50;99.90;;;;;;5084963;28;20041;-79
2023/03/15 07:38:34;;;;;;;7.93;1.23;;;1.60;99.90;;;;;;5101771;28;20048;-79
2023/03/15 07:41:03;;;;;;;4.70;0.68;;;2.50;99.90;;;;;;5085627;28;20043;-79
2023/03/15 07:43:30;;;;;;;2.03;0.65;;;1.70;99.90;;;;;;5084745;28;20044;-79
2023/03/15 07:45:57;;;;;;;1.77;0.52;;;1.70;99.90;;;;;;5067848;28;20556;-79
2023/03/15 07:48:24;;;;;;;4.43;0.80;;;1.80;99.90;;;;;;5068400;28;20127;-79
2023/03/15 07:50:51;;;;;;;4.30;0.60;;;1.80;99.90;;;;;;5084371;28;20037;-79
2023/03/15 07:53:18;;;;;;;9.02;0.60;;;2.50;99.90;;;;;;5118432;28;20040;-79
2023/03/15 07:55:46;;;;;;;5.85;1.52;;;2.60;99.90;;;;;;5084304;28;20053;-79
2023/03/15 07:58:14;;;;;;;1.73;0.82;;;2.10;99.90;;;;;;5101563;28;20044;-78
2023/03/15 08:00:41;;;;;;;3.03;0.80;;;2.20;99.90;;;;;;5100972;28;20037;-79
2023/03/15 08:03:08;;;;;;;4.15;0.93;;;2.20;99.90;;;;;;5068191;28;20041;-79
2023/03/15 08:05:34;;;;;;;2.63;0.75;;;2.30;99.90;;;;;;5067826;28;20048;-79
2023/03/15 08:08:01;;;;;;;4.90;1.10;;;2.40;99.90;;;;;;5084018;28;20417;-80
2023/03/15 08:10:28;;;;;;;6.65;1.48;;;2.50;99.90;;;;;;5064631;28;20041;-79
2023/03/15 08:12:55;;;;;;;4.25;1.10;;;2.90;99.90;;;;;;5098056;28;20128;-79
2023/03/15 08:15:21;;;;;;;4.57;1.05;;;2.60;99.90;;;;;;5098316;28;20037;-79
2023/03/15 08:17:48;;;;;;;1.95;0.80;;;2.70;99.90;;;;;;5109983;28;20041;-79
2023/03/15 08:20:18;;;;;;;2.22;0.82;;;3.90;99.90;;;;;;5088358;28;20106;-79
2023/03/15 08:22:46;;;;;;;8.00;1.10;;;2.90;99.90;;;;;;5055324;28;20045;-79
2023/03/15 08:25:15;;;;;;;4.72;0.88;;;3.00;99.90;;;;;;5072088;28;20040;-79
2023/03/15 08:27:42;;;;;;;1.67;0.75;;;3.20;99.90;;;;;;5087833;28;20072;-79
2023/03/15 08:30:11;;;;;;;1.10;0.52;;;3.20;99.90;;;;;;5071722;28;20045;-79
2023/03/15 08:32:39;;;;;;;7.50;1.23;;;3.30;99.90;;;;;;5104849;28;20043;-79
2023/03/15 08:35:07;;;;;;;11.82;0.82;;;3.40;99.90;;;;;;5071584;28;20516;-80
2023/03/15 08:37:34;;;;;;;9.75;1.27;;;3.50;99.90;;;;;;5087619;28;20033;-80
2023/03/15 08:40:08;;;;;;;4.95;0.95;;;3.60;99.90;;;;;;5071368;28;20481;-78
2023/03/15 08:42:36;;;;;;;6.00;0.50;;;4.00;99.90;;;;;;5086231;28;20075;-80
2023/03/15 08:45:05;;;;;;;7.70;1.45;;;3.80;99.90;;;;;;5121389;28;20164;-79
2023/03/15 08:47:36;;;;;;;5.28;0.73;;;3.90;99.90;;;;;;5104032;28;20554;-79
2023/03/15 08:50:05;;;;;;;2.90;0.93;;;4.00;99.90;;;;;;5087163;28;20045;-79
2023/03/15 08:52:32;;;;;;;3.45;0.77;;;4.00;99.90;;;;;;5071133;28;20079;-79
2023/03/15 08:54:59;;;;;;;6.20;1.23;;;4.10;99.90;;;;;;5103586;28;20068;-80
2023/03/15 08:57:27;;;;;;;3.08;0.98;;;4.20;99.90;;;;;;5086353;28;20076;-79
2023/03/15 08:59:55;;;;;;;2.08;0.68;;;4.50;99.90;;;;;;5085219;28;20041;-79
2023/03/15 09:02:22;;;;;;;7.35;0.95;;;4.30;99.90;;;;;;5069771;28;20041;-79
2023/03/15 09:04:49;;;;;;;4.45;0.90;;;4.40;99.90;;;;;;5069747;28;20052;-79
2023/03/15 09:07:15;;;;;;;10.18;1.08;;;4.50;99.90;;;;;;5069533;28;20045;-78
2023/03/15 09:09:46;;;;;;;2.08;0.70;;;4.50;99.90;;;;;;5053344;28;20076;-78
2023/03/15 09:12:16;;;;;;;4.03;1.00;;;4.60;99.90;;;;;;5087674;28;20520;-79
2023/03/15 09:14:43;;;;;;;4.90;0.75;;;4.70;99.90;;;;;;5087072;28;20587;-79
2023/03/15 09:17:10;;;;;;;4.78;1.00;;;4.80;99.90;;;;;;5035756;28;20061;-80
2023/03/15 09:19:37;;;;;;;6.70;1.33;;;4.80;99.90;;;;;;5086312;28;20053;-79
2023/03/15 09:22:05;;;;;;;6.47;1.05;;;4.90;99.90;;;;;;5103804;28;20090;-79
2023/03/15 09:24:32;;;;;;;2.83;0.88;;;5.00;99.90;;;;;;5069834;28;20041;-79
2023/03/15 09:26:58;;;;;;;5.65;0.77;;;5.10;99.90;;;;;;5086352;28;20060;-79
2023/03/15 09:29:25;;;;;;;3.63;1.10;;;5.30;99.90;;;;;;5053927;28;20071;-79
2023/03/15 09:31:52;;;;;;;1.75;0.70;;;5.40;99.90;;;;;;5070204;28;20032;-79
2023/03/15 09:34:19;;;;;;;6.00;0.60;;;5.60;99.90;;;;;;5086848;28;20118;-78
2023/03/15 09:36:51;;;;;;;6.95;1.25;;;5.50;99.90;;;;;;5086536;28;20033;-79
2023/03/15 09:39:20;;;;;;;5.68;1.13;;;5.60;99.90;;;;;;5086940;28;20516;-79
2023/03/15 09:41:52;;;;;;;3.17;0.95;;;5.60;99.90;;;;;;5102882;28;20071;-79
2023/03/15 09:44:42;;;;;;;7.82;0.82;;;5.70;99.90;;;;;;5103077;28;20045;-79
2023/03/15 09:47:36;;;;;;;3.35;0.93;;;5.70;99.90;;;;;;5086487;28;20111;-79
2023/03/15 09:50:23;;;;;;;2.03;1.00;;;5.70;99.90;;;;;;5086208;28;20051;-79
2023/03/15 09:53:39;;;;;;;1.55;0.63;;;5.80;99.90;;;;;;5085965;28;20378;-80
2023/03/15 09:56:28;;;;;;;3.00;0.57;;;5.80;99.90;;;;;;5055347;28;20552;-79
2023/03/15 09:59:00;;;;;;;4.75;0.70;;;6.00;99.90;;;;;;5063092;28;20045;-78
2023/03/15 10:01:46;;;;;;;3.72;1.08;;;6.00;99.90;;;;;;5065498;28;20509;-79
2023/03/15 10:04:16;;;;;;;;;;;6.10;99.90;;;;;;5082102;28;20045;-78
2023/03/15 10:06:48;;;;;;;2.72;0.68;;;6.20;99.90;;;;;;5061023;28;20419;-79
2023/03/15 10:09:19;;;;;;;2.00;0.50;;;6.30;99.90;;;;;;5069017;28;20041;-77
2023/03/15 10:12:04;;;;;;;1.60;0.70;;;6.30;99.90;;;;;;5068569;28;20045;-77
2023/03/15 10:14:54;;;;;;;1.40;0.68;;;6.40;99.90;;;;;;5068946;28;20040;-77
2023/03/15 10:17:32;;;;;;;4.28;0.85;;;6.40;99.90;;;;;;5085881;28;20048;-77
2023/03/15 10:20:08;;;;;;;1.60;0.70;;;6.50;99.90;;;;;;5101895;28;20055;-77
2023/03/15 10:22:53;;;;;;;;;;;6.60;99.90;;;;;;5119673;28;20480;-77
2023/03/15 10:25:31;;;;;;;1.45;0.60;;;6.60;99.90;;;;;;5102060;28;19917;-77
2023/03/15 10:27:57;;;;;;;8.20;0.75;;;6.70;99.90;;;;;;5101402;28;20467;-77
2023/03/15 10:30:29;;;;;;;5.60;0.70;;;6.70;99.90;;;;;;5085504;28;20049;-78
2023/03/15 10:33:10;;;;;;;3.22;0.57;;;6.80;99.90;;;;;;5101624;28;20041;-77
2023/03/15 10:35:37;;;;;;;5.88;0.75;;;6.60;99.90;;;;;;5068153;28;20083;-77
2023/03/15 10:38:21;;;;;;;2.53;0.40;;;6.90;99.90;;;;;;5067662;28;20071;-77
2023/03/15 10:40:50;;;;;;;3.17;0.50;;;7.00;99.90;;;;;;5052227;28;20037;-77
2023/03/15 10:43:22;;;;;;;4.38;1.08;;;7.20;99.90;;;;;;5068412;28;20041;-77
2023/03/15 10:45:59;;;;;;;3.40;0.70;;;7.30;99.90;;;;;;5068564;28;20040;-77
2023/03/15 10:48:28;;;;;;;3.28;0.50;;;7.40;99.90;;;;;;5068314;28;20063;-77
2023/03/15 10:50:55;;;;;;;1.75;0.50;;;7.50;99.90;;;;;;5084538;28;20052;-77
2023/03/15 10:53:24;;;;;;;3.72;0.68;;;7.50;99.90;;;;;;5118138;28;20087;-78
2023/03/15 10:56:00;;;;;;;5.35;0.70;;;7.40;99.90;;;;;;5068568;28;20059;-77
2023/03/15 10:58:30;;;;;;;;;;;7.20;99.90;;;;;;5086218;28;20575;-77
2023/03/15 11:01:06;;;;;;;4.25;0.77;;;7.20;99.90;;;;;;5068206;28;19962;-77
2023/03/15 11:03:35;;;;;;;3.83;0.57;;;7.40;99.90;;;;;;5085078;28;20043;-77
2023/03/15 11:06:16;;;;;;;4.65;1.05;;;7.20;99.90;;;;;;5068399;28;20448;-77
2023/03/15 11:08:43;;;;;;;2.97;0.60;;;7.20;99.90;;;;;;5068921;28;20045;-77
2023/03/15 11:11:10;;;;;;;3.90;0.75;;;7.30;99.90;;;;;;5052394;28;20124;-77
2023/03/15 11:13:39;;;;;;;6.78;0.80;;;7.50;99.90;;;;;;5052533;28;20044;-78
2023/03/15 11:16:12;;;;;;;2.85;0.63;;;7.30;99.90;;;;;;5101990;28;20124;-77
2023/03/15 11:18:54;;;;;;;2.63;0.80;;;7.40;99.90;;;;;;5102467;28;20497;-77
2023/03/15 11:21:25;;;;;;;3.17;0.65;;;7.40;99.90;;;;;;5069052;28;20041;-78
2023/03/15 11:23:53;;;;;;;8.93;0.93;;;7.30;99.90;;;;;;5068589;28;20051;-78
2023/03/15 11:26:27;;;;;;;5.22;0.50;;;7.20;99.90;;;;;;5118560;28;20092;-78
2023/03/15 11:29:02;;;;;;;9.63;1.02;;;7.40;99.90;;;;;;5085007;28;20490;-78
2023/03/15 11:31:30;;;;;;;1.90;0.73;;;7.40;99.90;;;;;;5085633;28;20119;-77
2023/03/15 11:34:05;;;;;;;0.55;0.50;;;7.60;99.90;;;;;;5068596;28;20052;-78
2023/03/15 11:36:34;;;;;;;;;;;7.70;99.90;;;;;;5102188;28;20076;-78
2023/03/15 11:39:03;;;;;;;1.88;0.60;;;7.80;99.90;;;;;;5068366;28;19917;-77
2023/03/15 11:41:56;;;;;;;6.50;0.57;;;7.60;99.90;;;;;;5118413;28;20052;-78
2023/03/15 11:44:46;;;;;;;3.92;0.82;;;7.60;99.90;;;;;;5068558;28;20580;-78
2023/03/15 11:47:25;;;;;;;4.53;0.77;;;7.70;99.90;;;;;;5097939;28;20057;-78
2023/03/15 11:49:56;;;;;;;3.83;0.90;;;7.80;99.90;;;;;;5052257;28;20624;-78
2023/03/15 11:52:26;;;;;;;3.60;0.75;;;7.80;99.90;;;;;;5052657;28;20037;-78
2023/03/15 11:55:00;;;;;;;1.20;0.60;;;7.80;99.90;;;;;;5072246;28;20481;-78
2023/03/15 11:57:36;;;;;;;5.65;0.80;;;7.80;99.90;;;;;;5071995;28;20132;-78
2023/03/15 12:00:28;;;;;;;5.40;0.60;;;7.90;99.70;;;;;;5088590;28;20052;-78
2023/03/15 12:02:57;;;;;;;6.60;1.25;;;8.00;99.90;;;;;;5102757;28;20045;-78
2023/03/15 12:05:42;;;;;;;3.42;0.70;;;7.80;99.90;;;;;;5072291;28;20511;-78
2023/03/15 12:08:43;;;;;;;3.25;0.85;;;7.70;99.90;;;;;;5095819;28;20577;-78
2023/03/15 12:11:37;;;;;;;1.85;0.95;;;7.70;99.90;;;;;;5070469;28;20416;-78
2023/03/15 12:14:19;;;;;;;2.15;0.52;;;7.50;99.90;;;;;;5087764;28;20044;-79
2023/03/15 12:16:46;;;;;;;3.40;0.85;;;7.60;99.90;;;;;;5071825;28;20037;-78
2023/03/15 12:19:23;;;;;;;2.65;1.00;;;7.60;99.90;;;;;;5104616;28;20098;-78
2023/03/15 12:21:53;;;;;;;5.97;0.82;;;7.80;99.90;;;;;;5071804;28;20052;-78
2023/03/15 12:24:22;;;;;;;2.75;0.73;;;7.80;99.90;;;;;;5071471;28;20048;-78
2023/03/15 12:26:58;;;;;;;3.30;0.70;;;7.90;99.90;;;;;;5121943;28;20033;-78
2023/03/15 12:29:31;;;;;;;3.72;0.73;;;7.90;99.90;;;;;;5071295;28;20080;-79
2023/03/15 12:32:07;;;;;;;2.22;0.75;;;7.80;99.80;;;;;;5104718;28;20037;-78
2023/03/15 12:34:51;;;;;;;6.80;0.70;;;7.80;99.20;;;;;;5071126;28;20041;-78
2023/03/15 12:37:31;;;;;;;3.72;0.80;;;7.90;99.40;;;;;;5070835;28;20025;-81
2023/03/15 12:40:27;;;;;;;5.28;0.65;;;7.90;99.90;;;;;;5088232;28;20037;-81
2023/03/15 12:42:56;;;;;;;2.53;0.65;;;7.80;99.90;;;;;;5096145;28;20060;-81
2023/03/15 12:45:36;;;;;;;3.63;0.82;;;7.90;99.90;;;;;;5071097;28;20585;-81
2023/03/15 12:48:11;;;;;;;3.47;0.80;;;8.00;99.10;;;;;;5071310;28;20044;-81
2023/03/15 12:50:44;;;;;;;2.40;0.88;;;8.00;99.90;;;;;;5071119;28;20036;-81
2023/03/15 12:53:38;;;;;;;4.30;1.35;;;8.00;99.90;;;;;;5071450;28;20036;-82
2023/03/15 12:56:17;;;;;;;2.55;0.80;;;8.00;99.90;;;;;;5071103;28;20513;-81
2023/03/15 12:58:54;;;;;;;5.40;0.88;;;8.10;99.90;;;;;;5070707;28;20052;-81
2023/03/15 13:01:24;;;;;;;2.88;0.80;;;8.20;99.90;;;;;;5086687;28;20052;-81
2023/03/15 13:03:57;;;;;;;2.67;0.70;;;8.30;98.30;;;;;;5087035;28;20050;-81
2023/03/15 13:06:45;;;;;;;4.07;0.73;;;8.30;98.20;;;;;;5070425;28;20048;-81
2023/03/15 13:09:14;;;;;;;2.92;0.65;;;8.30;99.00;;;;;;5103976;28;20041;-81
2023/03/15 13:11:51;;;;;;;8.68;1.27;;;8.20;98.20;;;;;;5103964;28;20048;-81
2023/03/15 13:14:36;;;;;;;5.68;0.88;;;8.20;98.90;;;;;;5103614;28;20497;-81